createdAt,value
2018-02-02T00:01:20.836Z,99246.30
2018-02-02T00:03:51.082Z,99245.87
2018-02-02T00:06:26.100Z,99246.37
2018-02-02T00:08:55.330Z,99244.64
2018-02-02T00:11:24.422Z,99248.08
2018-02-02T00:13:54.168Z,99240.16
2018-02-02T00:16:24.819Z,99242.78
2018-02-02T00:18:55.219Z,99244.14
2018-02-02T00:21:25.937Z,99248.50
2018-02-02T00:23:56.087Z,99240.91
2018-02-02T00:26:26.727Z,99247.46
2018-02-02T00:28:57.307Z,99252.28
2018-02-02T00:31:28.239Z,99244.02
2018-02-02T00:33:59.119Z,99243.19
2018-02-02T00:36:29.791Z,99245.27
2018-02-02T00:39:00.310Z,99238.20
2018-02-02T00:41:30.536Z,99236.00
2018-02-02T00:44:00.963Z,99231.03
2018-02-02T00:46:31.746Z,99239.74
2018-02-02T00:49:02.456Z,99245.38
2018-02-02T00:51:38.167Z,99256.72
2018-02-02T00:54:07.407Z,99255.88
2018-02-02T00:56:38.212Z,99258.45
2018-02-02T00:59:08.832Z,99260.58
2018-02-02T01:01:39.723Z,99267.21
2018-02-02T01:04:10.536Z,99270.73
2018-02-02T01:06:40.907Z,99274.58
2018-02-02T01:09:11.730Z,99275.89
2018-02-02T01:11:43.444Z,99265.83
2018-02-02T01:14:13.904Z,99261.34
2018-02-02T01:16:47.665Z,99246.58
2018-02-02T01:19:16.933Z,99242.56
2018-02-02T01:21:46.428Z,99240.36
2018-02-02T01:24:16.182Z,99246.50
2018-02-02T01:26:47.459Z,99244.30
2018-02-02T01:29:19.035Z,99240.41
2018-02-02T01:31:49.468Z,99237.05
2018-02-02T01:34:19.911Z,99238.28
2018-02-02T01:36:50.771Z,99234.62
2018-02-02T01:39:21.674Z,99244.64
2018-02-02T01:41:52.504Z,99240.56
2018-02-02T01:44:24.022Z,99247.27
2018-02-02T01:46:54.855Z,99242.84
2018-02-02T01:49:25.787Z,99237.13
2018-02-02T01:51:56.599Z,99231.37
2018-02-02T01:54:27.927Z,99227.02
2018-02-02T01:56:59.271Z,99236.97
2018-02-02T01:59:29.878Z,99236.50
2018-02-02T02:02:00.699Z,99240.29
2018-02-02T02:04:31.708Z,99234.97
2018-02-02T02:07:01.919Z,99240.56
2018-02-02T02:09:32.850Z,99243.68
2018-02-02T02:12:03.690Z,99242.30
2018-02-02T02:14:34.661Z,99245.95
2018-02-02T02:17:05.590Z,99248.23
2018-02-02T02:19:36.887Z,99252.52
2018-02-02T02:22:07.674Z,99248.70
2018-02-02T02:24:38.927Z,99245.27
2018-02-02T02:27:09.367Z,99244.34
2018-02-02T02:29:39.942Z,99233.31
2018-02-02T02:32:10.749Z,99234.89
2018-02-02T02:34:41.627Z,99242.77
2018-02-02T02:37:12.467Z,99240.22
2018-02-02T02:39:43.840Z,99240.14
2018-02-02T02:42:14.659Z,99243.38
2018-02-02T02:44:45.640Z,99234.97
2018-02-02T02:47:16.515Z,99239.37
2018-02-02T02:49:47.891Z,99237.67
2018-02-02T02:52:18.717Z,99232.97
2018-02-02T02:54:49.643Z,99237.79
2018-02-02T02:57:20.704Z,99239.10
2018-02-02T02:59:51.642Z,99240.61
2018-02-02T03:02:22.510Z,99244.63
2018-02-02T03:04:52.948Z,99253.11
2018-02-02T03:07:23.755Z,99250.75
2018-02-02T03:09:54.673Z,99246.97
2018-02-02T03:12:25.158Z,99255.11
2018-02-02T03:14:58.479Z,99261.17
2018-02-02T03:17:27.595Z,99267.80
2018-02-02T03:19:58.030Z,99268.53
2018-02-02T03:22:28.477Z,99267.11
2018-02-02T03:24:58.325Z,99275.02
2018-02-02T03:27:29.830Z,99272.62
2018-02-02T03:30:00.762Z,99275.63
2018-02-02T03:32:31.596Z,99273.09
2018-02-02T03:35:02.354Z,99270.00
2018-02-02T03:37:33.822Z,99281.49
2018-02-02T03:40:04.103Z,99290.05
2018-02-02T03:42:33.950Z,99295.44
2018-02-02T03:45:04.883Z,99285.42
2018-02-02T03:47:35.680Z,99281.06
2018-02-02T03:50:07.134Z,99281.98
2018-02-02T03:52:38.342Z,99283.84
2018-02-02T03:55:09.866Z,99277.36
2018-02-02T03:57:40.930Z,99272.31
2018-02-02T04:00:11.867Z,99276.24
2018-02-02T04:02:42.715Z,99279.75
2018-02-02T04:05:13.603Z,99277.97
2018-02-02T04:07:44.290Z,99275.63
2018-02-02T04:10:16.275Z,99270.64
2018-02-02T04:12:46.909Z,99272.00
2018-02-02T04:15:17.767Z,99273.27
2018-02-02T04:17:48.823Z,99275.23
2018-02-02T04:20:18.638Z,99271.92
2018-02-02T04:22:49.867Z,99276.08
2018-02-02T04:25:20.747Z,99282.28
2018-02-02T04:27:51.560Z,99277.66
2018-02-02T04:30:22.840Z,99286.05
2018-02-02T04:32:53.682Z,99293.49
2018-02-02T04:35:30.698Z,99287.13
2018-02-02T04:37:59.746Z,99281.12
2018-02-02T04:40:28.806Z,99284.77
2018-02-02T04:42:57.928Z,99278.77
2018-02-02T04:45:28.369Z,99278.84
2018-02-02T04:47:58.283Z,99281.03
2018-02-02T04:50:28.855Z,99275.87
2018-02-02T04:52:59.727Z,99275.17
2018-02-02T04:55:31.019Z,99285.80
2018-02-02T04:58:02.064Z,99281.52
2018-02-02T05:00:32.894Z,99298.20
2018-02-02T05:03:03.434Z,99301.73
2018-02-02T05:05:33.875Z,99303.45
2018-02-02T05:08:05.089Z,99312.47
2018-02-02T05:10:35.451Z,99322.43
2018-02-02T05:13:06.203Z,99319.95
2018-02-02T05:15:36.764Z,99321.80
2018-02-02T05:18:09.726Z,99318.41
2018-02-02T05:20:39.314Z,99320.90
2018-02-02T05:23:09.155Z,99312.89
2018-02-02T05:25:39.827Z,99313.08
2018-02-02T05:28:10.709Z,99313.50
2018-02-02T05:30:41.515Z,99315.23
2018-02-02T05:33:12.896Z,99306.79
2018-02-02T05:35:43.331Z,99308.41
2018-02-02T05:38:14.071Z,99313.27
2018-02-02T05:40:44.875Z,99312.88
2018-02-02T05:43:15.728Z,99319.53
2018-02-02T05:45:46.524Z,99320.92
2018-02-02T05:48:17.828Z,99316.71
2018-02-02T05:50:48.327Z,99322.34
2018-02-02T05:53:18.924Z,99317.67
2018-02-02T05:55:49.465Z,99313.74
2018-02-02T05:58:21.106Z,99316.36
2018-02-02T06:00:51.747Z,99321.64
2018-02-02T06:03:23.162Z,99318.67
2018-02-02T06:05:53.849Z,99315.35
2018-02-02T06:08:24.834Z,99317.78
2018-02-02T06:10:55.279Z,99317.51
2018-02-02T06:13:25.899Z,99323.63
2018-02-02T06:15:56.702Z,99319.77
2018-02-02T06:18:27.359Z,99325.08
2018-02-02T06:20:58.774Z,99325.20
2018-02-02T06:23:29.644Z,99328.77
2018-02-02T06:26:00.495Z,99332.07
2018-02-02T06:28:32.020Z,99333.38
2018-02-02T06:31:02.836Z,99338.19
2018-02-02T06:33:33.995Z,99337.49
2018-02-02T06:36:04.762Z,99334.50
2018-02-02T06:38:35.316Z,99335.16
2018-02-02T06:41:06.504Z,99332.58
2018-02-02T06:43:36.989Z,99331.53
2018-02-02T06:46:07.494Z,99332.48
2018-02-02T06:48:37.970Z,99329.16
2018-02-02T06:51:08.825Z,99340.66
2018-02-02T06:53:39.346Z,99338.19
2018-02-02T06:56:10.361Z,99337.13
2018-02-02T06:58:39.691Z,99333.42
2018-02-02T07:01:11.056Z,99333.00
2018-02-02T07:03:41.903Z,99328.97
2018-02-02T07:06:12.714Z,99338.59
2018-02-02T07:08:43.268Z,99334.39
2018-02-02T07:11:13.848Z,99335.34
2018-02-02T07:13:44.740Z,99345.04
2018-02-02T07:16:14.945Z,99342.25
2018-02-02T07:18:45.455Z,99337.68
2018-02-02T07:21:18.369Z,99342.23
2018-02-02T07:23:48.171Z,99336.64
2018-02-02T07:26:18.796Z,99348.98
2018-02-02T07:28:49.663Z,99352.14
2018-02-02T07:31:20.417Z,99348.78
2018-02-02T07:33:52.063Z,99348.70
2018-02-02T07:36:22.871Z,99356.28
2018-02-02T07:38:53.735Z,99349.72
2018-02-02T07:41:24.607Z,99359.41
2018-02-02T07:43:55.547Z,99359.52
2018-02-02T07:46:26.848Z,99356.97
2018-02-02T07:48:57.443Z,99358.52
2018-02-02T07:51:28.830Z,99350.06
2018-02-02T07:53:59.726Z,99349.57
2018-02-02T07:56:30.960Z,99346.77
2018-02-02T07:59:01.573Z,99352.34
2018-02-02T08:01:32.072Z,99356.06
2018-02-02T08:04:02.859Z,99352.13
2018-02-02T08:06:34.167Z,99355.72
2018-02-02T08:09:04.479Z,99354.94
2018-02-02T08:11:35.843Z,99357.65
2018-02-02T08:14:06.864Z,99358.88
2018-02-02T08:16:37.708Z,99363.25
2018-02-02T08:19:08.793Z,99360.72
2018-02-02T08:21:39.630Z,99361.23
2018-02-02T08:24:10.986Z,99359.10
2018-02-02T08:26:43.198Z,99358.80
2018-02-02T08:29:12.494Z,99356.74
2018-02-02T08:31:41.551Z,99354.19
2018-02-02T08:34:12.428Z,99360.34
2018-02-02T08:36:43.766Z,99364.93
2018-02-02T08:39:14.584Z,99357.68
2018-02-02T08:41:45.940Z,99363.71
2018-02-02T08:44:16.788Z,99361.31
2018-02-02T08:46:47.757Z,99367.39
2018-02-02T08:49:18.587Z,99365.20
2018-02-02T08:51:49.991Z,99363.02
2018-02-02T08:54:20.781Z,99358.98
2018-02-02T08:56:53.633Z,99364.70
2018-02-02T08:59:23.259Z,99358.85
2018-02-02T09:01:58.810Z,99364.41
2018-02-02T09:04:28.677Z,99367.20
2018-02-02T09:06:57.753Z,99375.78
2018-02-02T09:09:26.917Z,99377.06
2018-02-02T09:11:57.497Z,99385.70
2018-02-02T09:14:27.875Z,99383.16
2018-02-02T09:16:58.886Z,99388.14
2018-02-02T09:19:30.005Z,99387.38
2018-02-02T09:21:59.649Z,99392.93
2018-02-02T09:24:34.478Z,99393.28
2018-02-02T09:27:02.587Z,99385.96
2018-02-02T09:29:33.807Z,99386.77
2018-02-02T09:32:05.382Z,99384.84
2018-02-02T09:34:35.891Z,99383.19
2018-02-02T09:37:06.784Z,99391.75
2018-02-02T09:39:38.076Z,99390.32
2018-02-02T09:42:08.908Z,99390.82
2018-02-02T09:44:39.773Z,99386.45
2018-02-02T09:47:10.478Z,99383.70
2018-02-02T09:49:41.960Z,99390.42
2018-02-02T09:52:12.864Z,99395.58
2018-02-02T09:54:43.713Z,99389.89
2018-02-02T09:57:14.579Z,99387.69
2018-02-02T09:59:46.090Z,99388.25
2018-02-02T10:02:16.899Z,99382.65
2018-02-02T10:04:47.807Z,99377.12
2018-02-02T10:07:18.735Z,99375.31
2018-02-02T10:09:50.291Z,99373.98
2018-02-02T10:12:20.517Z,99364.74
2018-02-02T10:14:51.111Z,99366.94
2018-02-02T10:17:21.755Z,99374.47
2018-02-02T10:19:53.113Z,99372.94
2018-02-02T10:22:23.935Z,99371.02
2018-02-02T10:24:54.849Z,99371.61
2018-02-02T10:27:25.740Z,99362.06
2018-02-02T10:29:56.621Z,99362.22
2018-02-02T10:32:27.965Z,99362.17
2018-02-02T10:34:58.887Z,99354.73
2018-02-02T10:37:30.039Z,99356.74
2018-02-02T10:40:01.106Z,99352.02
2018-02-02T10:42:32.633Z,99338.78
2018-02-02T10:45:02.543Z,99340.91
2018-02-02T10:47:32.994Z,99347.46
2018-02-02T10:50:04.528Z,99339.63
2018-02-02T10:52:35.055Z,99342.52
2018-02-02T10:55:05.921Z,99348.16
2018-02-02T10:57:36.733Z,99338.66
2018-02-02T11:00:07.653Z,99335.11
2018-02-02T11:02:43.914Z,99333.50
2018-02-02T11:05:12.982Z,99337.06
2018-02-02T11:07:42.194Z,99335.45
2018-02-02T11:10:11.747Z,99339.53
2018-02-02T11:12:42.315Z,99334.11
2018-02-02T11:15:12.675Z,99333.63
2018-02-02T11:17:43.622Z,99333.25
2018-02-02T11:20:14.115Z,99331.94
2018-02-02T11:22:44.940Z,99335.59
2018-02-02T11:25:15.861Z,99329.97
2018-02-02T11:27:47.135Z,99319.56
2018-02-02T11:30:17.479Z,99317.78
2018-02-02T11:32:48.176Z,99326.86
2018-02-02T11:35:18.781Z,99323.85
2018-02-02T11:37:50.181Z,99317.35
2018-02-02T11:40:20.854Z,99317.11
2018-02-02T11:42:51.808Z,99316.80
2018-02-02T11:45:22.279Z,99315.37
2018-02-02T11:47:53.360Z,99306.28
2018-02-02T11:50:23.907Z,99308.66
2018-02-02T11:52:54.800Z,99307.19
2018-02-02T11:55:25.583Z,99305.44
2018-02-02T11:57:56.043Z,99298.73
2018-02-02T12:00:26.742Z,99287.83
2018-02-02T12:02:57.615Z,99291.05
2018-02-02T12:05:28.716Z,99288.34
2018-02-02T12:07:59.585Z,99288.21
2018-02-02T12:10:30.838Z,99282.31
2018-02-02T12:13:02.319Z,99288.67
2018-02-02T12:15:32.955Z,99285.20
2018-02-02T12:18:03.796Z,99286.51
2018-02-02T12:20:34.143Z,99279.93
2018-02-02T12:23:09.615Z,99272.80
2018-02-02T12:28:54.185Z,99276.86
2018-02-02T12:34:35.900Z,99275.58
2018-02-02T12:37:04.607Z,99277.81
2018-02-02T12:39:33.599Z,99274.14
2018-02-02T12:42:02.595Z,99276.40
2018-02-02T12:44:31.703Z,99277.45
2018-02-02T12:47:00.775Z,99270.19
2018-02-02T12:49:32.383Z,99276.57
2018-02-02T12:52:01.471Z,99276.28
2018-02-02T12:54:30.536Z,99262.09
2018-02-02T12:57:00.051Z,99258.45
2018-02-02T12:59:28.872Z,99266.69
2018-02-02T13:01:57.813Z,99263.41
2018-02-02T13:04:27.016Z,99268.80
2018-02-02T13:06:56.181Z,99267.36
2018-02-02T13:09:24.957Z,99263.20
2018-02-02T13:11:53.898Z,99266.51
2018-02-02T13:14:23.081Z,99266.27
2018-02-02T13:16:51.870Z,99263.55
2018-02-02T13:19:20.770Z,99254.76
2018-02-02T13:21:49.653Z,99272.20
2018-02-02T13:24:18.734Z,99266.47
2018-02-02T13:26:47.992Z,99262.27
2018-02-02T13:29:16.739Z,99267.02
2018-02-02T13:31:45.529Z,99262.27
2018-02-02T13:34:14.259Z,99263.91
2018-02-02T13:36:43.264Z,99265.02
2018-02-02T13:39:12.084Z,99265.95
2018-02-02T13:41:41.779Z,99272.77
2018-02-02T13:44:10.921Z,99269.72
2018-02-02T13:46:39.943Z,99275.63
2018-02-02T13:49:08.812Z,99277.09
2018-02-02T13:51:37.743Z,99277.52
2018-02-02T13:54:06.819Z,99285.95
2018-02-02T13:56:35.754Z,99282.03
2018-02-02T13:59:04.713Z,99284.73
2018-02-02T14:01:33.682Z,99279.20
2018-02-02T14:04:03.428Z,99281.88
2018-02-02T14:06:32.494Z,99289.16
2018-02-02T14:09:01.584Z,99279.64
2018-02-02T14:11:30.716Z,99280.88
2018-02-02T14:13:59.830Z,99278.23
2018-02-02T14:16:29.380Z,99275.13
2018-02-02T14:18:58.495Z,99273.05
2018-02-02T14:21:27.596Z,99285.06
2018-02-02T14:23:56.687Z,99282.23
2018-02-02T14:26:26.280Z,99280.71
2018-02-02T14:28:55.383Z,99280.80
2018-02-02T14:31:24.562Z,99272.64
2018-02-02T14:33:53.764Z,99280.05
2018-02-02T14:36:23.014Z,99275.72
2018-02-02T14:38:52.496Z,99276.69
2018-02-02T14:41:22.988Z,99259.34
2018-02-02T14:43:53.835Z,99275.26
2018-02-02T14:46:24.690Z,99267.83
2018-02-02T14:48:55.494Z,99269.53
2018-02-02T14:51:26.907Z,99264.09
2018-02-02T14:53:57.776Z,99265.37
2018-02-02T14:56:28.647Z,99273.86
2018-02-02T14:58:59.112Z,99266.98
2018-02-02T15:01:29.998Z,99268.30
2018-02-02T15:04:01.447Z,99270.34
2018-02-02T15:06:31.982Z,99271.64
2018-02-02T15:09:02.879Z,99278.48
2018-02-02T15:11:34.417Z,99288.28
2018-02-02T15:14:04.836Z,99276.11
2018-02-02T15:16:36.022Z,99279.23
2018-02-02T15:19:06.758Z,99282.64
2018-02-02T15:21:37.646Z,99290.06
2018-02-02T15:24:08.422Z,99280.70
2018-02-02T15:26:39.875Z,99267.48
2018-02-02T15:29:10.676Z,99282.77
2018-02-02T15:31:42.756Z,99289.25
2018-02-02T15:34:13.237Z,99279.86
2018-02-02T15:36:43.852Z,99282.87
2018-02-02T15:39:14.343Z,99289.55
2018-02-02T15:41:44.989Z,99284.77
2018-02-02T15:44:15.820Z,99272.12
2018-02-02T15:46:46.882Z,99279.30
2018-02-02T15:49:18.144Z,99285.87
2018-02-02T15:51:48.903Z,99288.05
2018-02-02T15:54:19.468Z,99284.19
2018-02-02T15:56:50.888Z,99285.20
2018-02-02T15:59:21.508Z,99276.32
2018-02-02T16:01:56.966Z,99282.47
2018-02-02T16:04:26.224Z,99285.94
2018-02-02T16:06:55.344Z,99288.30
2018-02-02T16:09:25.577Z,99289.97
2018-02-02T16:11:56.540Z,99298.84
2018-02-02T16:14:27.228Z,99293.75
2018-02-02T16:16:57.897Z,99299.52
2018-02-02T16:19:28.496Z,99307.72
2018-02-02T16:21:59.847Z,99304.98
2018-02-02T16:24:30.400Z,99307.48
2018-02-02T16:27:01.679Z,99318.70
2018-02-02T16:29:32.296Z,99311.80
2018-02-02T16:32:02.979Z,99311.15
2018-02-02T16:34:33.888Z,99309.84
2018-02-02T16:37:04.319Z,99306.80
2018-02-02T16:39:35.716Z,99304.88
2018-02-02T16:42:06.418Z,99309.70
2018-02-02T16:44:37.764Z,99310.13
2018-02-02T16:47:10.135Z,99308.58
2018-02-02T16:49:40.479Z,99311.83
2018-02-02T16:52:10.748Z,99321.22
2018-02-02T16:54:41.558Z,99331.78
2018-02-02T16:57:12.706Z,99326.23
2018-02-02T16:59:43.207Z,99326.04
2018-02-02T17:02:15.760Z,99327.81
2018-02-02T17:04:46.159Z,99336.30
2018-02-02T17:07:16.743Z,99334.91
2018-02-02T17:09:47.871Z,99334.02
2018-02-02T17:12:18.923Z,99333.37
2018-02-02T17:14:49.757Z,99330.74
2018-02-02T17:17:20.248Z,99316.52
2018-02-02T17:19:50.980Z,99329.36
2018-02-02T17:22:21.859Z,99336.04
2018-02-02T17:24:53.611Z,99345.35
2018-02-02T17:27:24.506Z,99345.13
2018-02-02T17:29:54.999Z,99351.86
2018-02-02T17:32:25.775Z,99348.00
2018-02-02T17:34:56.722Z,99344.77
2018-02-02T17:37:27.137Z,99344.92
2018-02-02T17:39:58.486Z,99348.98
2018-02-02T17:42:28.944Z,99351.39
2018-02-02T17:44:59.827Z,99355.86
2018-02-02T17:47:30.764Z,99351.33
2018-02-02T17:50:02.127Z,99355.80
2018-02-02T17:52:33.041Z,99349.65
2018-02-02T17:55:03.892Z,99354.89
2018-02-02T17:57:34.992Z,99352.53
2018-02-02T18:00:05.431Z,99358.99
2018-02-02T18:05:39.168Z,99364.67
2018-02-02T18:08:10.431Z,99365.80
2018-02-02T18:10:39.516Z,99356.86
2018-02-02T18:13:08.643Z,99354.52
2018-02-02T18:15:37.799Z,99364.47
2018-02-02T18:18:06.710Z,99358.88
2018-02-02T18:20:35.809Z,99358.52
2018-02-02T18:23:04.832Z,99364.08
2018-02-02T18:25:33.816Z,99359.60
2018-02-02T18:28:02.619Z,99375.31
2018-02-02T18:30:31.785Z,99376.27
2018-02-02T18:33:00.715Z,99373.66
2018-02-02T18:35:29.270Z,99369.80
2018-02-02T18:37:58.672Z,99362.91
2018-02-02T18:40:28.058Z,99356.36
2018-02-02T18:42:57.286Z,99357.06
2018-02-02T18:45:26.480Z,99370.51
2018-02-02T18:47:55.585Z,99368.38
2018-02-02T18:50:24.940Z,99367.50
2018-02-02T18:52:54.379Z,99364.03
2018-02-02T18:55:23.599Z,99360.71
2018-02-02T18:57:53.621Z,99364.95
2018-02-02T19:00:24.157Z,99366.91
2018-02-02T19:02:54.865Z,99358.67
2018-02-02T19:05:25.745Z,99355.39
2018-02-02T19:07:56.888Z,99352.70
2018-02-02T19:10:27.521Z,99361.51
2018-02-02T19:12:57.941Z,99347.61
2018-02-02T19:15:28.863Z,99359.84
2018-02-02T19:17:59.716Z,99360.87
2018-02-02T19:20:30.720Z,99348.39
2018-02-02T19:23:01.547Z,99349.17
2018-02-02T19:25:33.167Z,99354.78
2018-02-02T19:28:03.528Z,99357.38
2018-02-02T19:30:33.974Z,99368.69
2018-02-02T19:33:04.691Z,99363.83
2018-02-02T19:35:36.161Z,99364.79
2018-02-02T19:38:06.690Z,99375.04
2018-02-02T19:40:38.123Z,99367.69
2018-02-02T19:43:08.852Z,99353.55
2018-02-02T19:45:39.890Z,99353.16
2018-02-02T19:48:10.490Z,99349.23
2018-02-02T19:50:41.381Z,99348.59
2018-02-02T19:53:11.967Z,99339.08
2018-02-02T19:55:42.771Z,99331.95
2018-02-02T19:58:13.845Z,99323.00
2018-02-02T20:00:43.839Z,99332.44
2018-02-02T20:03:14.606Z,99346.00
2018-02-02T20:05:45.470Z,99343.63
2018-02-02T20:08:16.438Z,99346.13
2018-02-02T20:10:47.184Z,99342.38
2018-02-02T20:13:17.431Z,99345.06
2018-02-02T20:15:47.778Z,99352.13
2018-02-02T20:18:19.000Z,99359.78
2018-02-02T20:20:50.195Z,99369.00
2018-02-02T20:23:20.807Z,99367.09
2018-02-02T20:25:51.854Z,99369.25
2018-02-02T20:28:21.079Z,99363.78
2018-02-02T20:30:51.058Z,99363.59
2018-02-02T20:33:20.179Z,99360.23
2018-02-02T20:35:49.314Z,99364.11
2018-02-02T20:38:18.156Z,99363.82
2018-02-02T20:40:46.712Z,99362.94
2018-02-02T20:43:15.792Z,99372.68
2018-02-02T20:45:44.834Z,99374.17
2018-02-02T20:48:14.230Z,99383.95
2018-02-02T20:50:43.345Z,99376.69
2018-02-02T20:53:12.139Z,99366.83
2018-02-02T20:55:41.023Z,99369.28
2018-02-02T20:58:10.035Z,99361.25
2018-02-02T21:00:39.070Z,99365.18
2018-02-02T21:03:08.126Z,99355.36
2018-02-02T21:05:36.948Z,99358.75
2018-02-02T21:08:05.808Z,99352.13
2018-02-02T21:10:34.893Z,99350.75
2018-02-02T21:13:03.796Z,99365.57
2018-02-02T21:15:32.766Z,99368.37
2018-02-02T21:18:01.756Z,99363.84
2018-02-02T21:20:30.781Z,99355.57
2018-02-02T21:23:00.001Z,99358.86
2018-02-02T21:25:28.864Z,99357.20
2018-02-02T21:27:57.765Z,99360.69
2018-02-02T21:30:26.712Z,99353.18
2018-02-02T21:32:55.856Z,99336.20
2018-02-02T21:35:24.807Z,99343.02
2018-02-02T21:37:53.671Z,99352.22
2018-02-02T21:40:22.908Z,99347.13
2018-02-02T21:42:51.889Z,99351.15
2018-02-02T21:45:20.801Z,99353.83
2018-02-02T21:47:49.811Z,99349.25
2018-02-02T21:50:18.929Z,99344.53
2018-02-02T21:52:47.812Z,99337.74
2018-02-02T21:55:16.939Z,99344.53
2018-02-02T21:57:45.775Z,99348.31
2018-02-02T22:00:14.568Z,99343.97
2018-02-02T22:02:43.718Z,99343.87
2018-02-02T22:05:12.813Z,99342.14
2018-02-02T22:07:41.922Z,99339.06
2018-02-02T22:10:10.820Z,99342.20
2018-02-02T22:12:39.827Z,99339.36
2018-02-02T22:15:08.792Z,99343.23
2018-02-02T22:17:37.869Z,99343.83
2018-02-02T22:20:06.544Z,99341.24
2018-02-02T22:22:35.515Z,99341.14
2018-02-02T22:25:04.707Z,99349.41
2018-02-02T22:27:33.668Z,99347.25
2018-02-02T22:30:02.742Z,99346.83
2018-02-02T22:32:31.701Z,99349.08
2018-02-02T22:35:00.768Z,99344.22
2018-02-02T22:37:29.708Z,99342.88
2018-02-02T22:39:58.958Z,99344.93
2018-02-02T22:42:27.740Z,99347.02
2018-02-02T22:44:56.533Z,99346.91
2018-02-02T22:47:25.494Z,99346.61
2018-02-02T22:49:54.626Z,99344.29
2018-02-02T22:52:23.813Z,99342.39
2018-02-02T22:54:53.092Z,99337.95
2018-02-02T22:57:21.926Z,99340.32
2018-02-02T22:59:50.761Z,99340.44
2018-02-02T23:02:19.788Z,99334.76
2018-02-02T23:04:48.668Z,99339.56
2018-02-02T23:07:17.728Z,99342.34
2018-02-02T23:09:46.883Z,99342.88
2018-02-02T23:12:15.808Z,99342.72
2018-02-02T23:14:44.640Z,99335.63
2018-02-02T23:17:13.837Z,99337.28
2018-02-02T23:19:42.427Z,99336.18
2018-02-02T23:22:11.488Z,99338.44
2018-02-02T23:24:40.636Z,99333.78
2018-02-02T23:27:09.721Z,99331.23
2018-02-02T23:29:38.984Z,99332.67
2018-02-02T23:32:08.206Z,99327.49
2018-02-02T23:34:37.341Z,99322.17
2018-02-02T23:37:06.317Z,99321.14
2018-02-02T23:39:36.547Z,99317.09
2018-02-02T23:42:07.018Z,99312.94
2018-02-02T23:44:38.459Z,99315.92
2018-02-02T23:47:10.192Z,99312.24
2018-02-02T23:49:39.559Z,99314.55
2018-02-02T23:52:10.023Z,99320.91
2018-02-02T23:54:40.899Z,99310.81
2018-02-02T23:57:11.732Z,99318.59
2018-02-02T23:59:42.664Z,99313.01
